createdAt,value
2019-02-22T00:04:18.477Z,101917.23
2019-02-22T00:06:45.466Z,101915.48
2019-02-22T00:09:12.503Z,101918.09
2019-02-22T00:11:39.341Z,101923.33
2019-02-22T00:14:06.810Z,101918.55
2019-02-22T00:16:33.925Z,101928.16
2019-02-22T00:19:00.800Z,101932.11
2019-02-22T00:21:27.699Z,101934.73
2019-02-22T00:23:54.471Z,101943.47
2019-02-22T00:26:29.373Z,101953.98
2019-02-22T00:28:56.493Z,101952.67
2019-02-22T00:31:23.583Z,101961.86
2019-02-22T00:33:50.791Z,101961.42
2019-02-22T00:36:17.956Z,101961.84
2019-02-22T00:38:45.343Z,101969.29
2019-02-22T00:41:12.609Z,101970.59
2019-02-22T00:43:40.150Z,101974.53
2019-02-22T00:46:07.594Z,101980.21
2019-02-22T00:48:47.341Z,101984.59
2019-02-22T00:51:14.417Z,101991.56
2019-02-22T00:53:41.507Z,101987.66
2019-02-22T00:56:08.719Z,101996.83
2019-02-22T00:58:35.800Z,101990.70
2019-02-22T01:01:02.936Z,101990.27
2019-02-22T01:03:31.071Z,101999.91
2019-02-22T01:05:58.146Z,101999.00
2019-02-22T01:08:25.251Z,102010.37
2019-02-22T01:10:53.169Z,102009.50
2019-02-22T01:13:20.300Z,102008.63
2019-02-22T01:15:47.379Z,102019.56
2019-02-22T01:18:14.812Z,102024.33
2019-02-22T01:20:42.016Z,102034.42
2019-02-22T01:23:09.091Z,102043.14
2019-02-22T01:25:36.627Z,102039.23
2019-02-22T01:28:04.088Z,102049.74
2019-02-22T01:30:31.194Z,102045.77
2019-02-22T01:32:58.995Z,102054.08
2019-02-22T01:35:26.077Z,102058.93
2019-02-22T01:37:53.504Z,102062.00
2019-02-22T01:40:21.368Z,102070.27
2019-02-22T01:42:48.480Z,102076.42
2019-02-22T01:45:15.984Z,102076.41
2019-02-22T01:47:43.360Z,102085.59
2019-02-22T01:50:51.461Z,102079.41
2019-02-22T01:53:18.604Z,102081.64
2019-02-22T01:55:46.151Z,102082.48
2019-02-22T01:58:13.225Z,102089.03
2019-02-22T02:03:13.708Z,102098.63
2019-02-22T02:05:40.452Z,102106.06
2019-02-22T02:08:08.067Z,102108.27
2019-02-22T02:10:35.070Z,102113.06
2019-02-22T02:13:01.834Z,102113.53
2019-02-22T02:15:29.168Z,102110.43
2019-02-22T02:17:56.008Z,102117.45
2019-02-22T02:20:42.474Z,102121.39
2019-02-22T02:23:09.237Z,102129.20
2019-02-22T02:25:36.297Z,102131.36
2019-02-22T02:28:03.180Z,102133.56
2019-02-22T02:30:30.235Z,102135.71
2019-02-22T02:32:56.987Z,102140.98
2019-02-22T02:35:24.791Z,102142.77
2019-02-22T02:37:51.997Z,102144.52
2019-02-22T02:40:18.753Z,102148.00
2019-02-22T02:42:45.720Z,102158.50
2019-02-22T02:45:12.498Z,102152.35
2019-02-22T02:47:39.248Z,102156.69
2019-02-22T02:50:06.412Z,102166.30
2019-02-22T02:52:33.214Z,102169.34
2019-02-22T02:55:00.004Z,102176.76
2019-02-22T02:57:27.108Z,102175.45
2019-02-22T02:59:54.037Z,102181.61
2019-02-22T03:05:05.816Z,102188.12
2019-02-22T03:07:52.837Z,102187.29
2019-02-22T03:10:20.351Z,102196.41
2019-02-22T03:12:47.441Z,102198.16
2019-02-22T03:18:03.008Z,102204.69
2019-02-22T03:20:30.025Z,102204.69
2019-02-22T03:22:57.030Z,102211.70
2019-02-22T03:25:23.874Z,102209.08
2019-02-22T03:27:50.690Z,102212.09
2019-02-22T03:30:17.425Z,102217.36
2019-02-22T03:32:44.681Z,102221.25
2019-02-22T03:35:11.438Z,102223.09
2019-02-22T03:37:38.171Z,102221.33
2019-02-22T03:40:05.203Z,102226.52
2019-02-22T03:42:31.858Z,102234.81
2019-02-22T03:44:58.619Z,102232.61
2019-02-22T03:47:25.747Z,102241.37
2019-02-22T03:49:52.984Z,102238.69
2019-02-22T03:52:39.436Z,102242.83
2019-02-22T03:55:08.511Z,102248.98
2019-02-22T03:57:35.547Z,102254.17
2019-02-22T04:00:02.630Z,102252.81
2019-02-22T04:02:30.423Z,102259.47
2019-02-22T04:04:58.049Z,102262.91
2019-02-22T04:07:24.876Z,102277.78
2019-02-22T04:09:51.618Z,102292.72
2019-02-22T04:12:18.365Z,102292.59
2019-02-22T04:14:45.437Z,102294.70
2019-02-22T04:17:12.230Z,102306.38
2019-02-22T04:19:39.050Z,102304.63
2019-02-22T04:22:05.978Z,102317.30
2019-02-22T04:24:32.718Z,102318.52
2019-02-22T04:26:59.585Z,102328.94
2019-02-22T04:29:26.584Z,102332.37
2019-02-22T04:31:53.342Z,102346.77
2019-02-22T04:34:20.392Z,102345.34
2019-02-22T04:36:47.217Z,102362.78
2019-02-22T04:39:13.965Z,102357.43
2019-02-22T04:41:41.245Z,102370.16
2019-02-22T04:44:08.064Z,102378.16
2019-02-22T04:46:35.041Z,102389.01
2019-02-22T04:49:01.798Z,102395.44
2019-02-22T04:51:28.857Z,102404.39
2019-02-22T04:53:55.902Z,102411.94
2019-02-22T04:56:22.703Z,102418.27
2019-02-22T04:58:49.800Z,102427.33
2019-02-22T05:01:16.827Z,102430.23
2019-02-22T05:03:43.995Z,102447.01
2019-02-22T05:06:11.106Z,102452.06
2019-02-22T05:08:37.876Z,102463.20
2019-02-22T05:11:05.005Z,102466.97
2019-02-22T05:13:32.217Z,102473.02
2019-02-22T05:15:59.511Z,102493.78
2019-02-22T05:18:26.270Z,102492.55
2019-02-22T05:20:53.119Z,102501.95
2019-02-22T05:23:19.840Z,102511.48
2019-02-22T05:25:47.023Z,102517.97
2019-02-22T05:28:13.819Z,102527.14
2019-02-22T05:30:40.851Z,102534.65
2019-02-22T05:33:07.695Z,102544.87
2019-02-22T05:35:34.690Z,102553.08
2019-02-22T05:38:01.518Z,102553.63
2019-02-22T05:40:28.185Z,102562.41
2019-02-22T05:42:55.200Z,102558.73
2019-02-22T05:45:22.312Z,102571.33
2019-02-22T05:47:49.474Z,102571.42
2019-02-22T05:50:16.257Z,102577.00
2019-02-22T05:52:42.997Z,102586.09
2019-02-22T05:55:09.744Z,102590.23
2019-02-22T05:57:36.487Z,102591.58
2019-02-22T06:00:03.686Z,102606.23
2019-02-22T06:02:33.593Z,102615.44
2019-02-22T06:04:59.268Z,102627.59
2019-02-22T06:07:25.998Z,102636.16
2019-02-22T06:10:13.277Z,102646.02
2019-02-22T06:12:40.345Z,102661.67
2019-02-22T06:15:07.410Z,102670.72
2019-02-22T06:17:34.786Z,102677.42
2019-02-22T06:20:01.933Z,102694.96
2019-02-22T06:22:30.053Z,102702.30
2019-02-22T06:24:57.995Z,102706.88
2019-02-22T06:27:25.012Z,102713.24
2019-02-22T06:29:53.280Z,102721.91
2019-02-22T06:32:20.086Z,102721.68
2019-02-22T06:34:50.639Z,102729.56
2019-02-22T06:37:17.362Z,102729.42
2019-02-22T06:39:44.167Z,102735.55
2019-02-22T06:42:11.143Z,102741.95
2019-02-22T06:44:37.821Z,102753.39
2019-02-22T06:47:04.676Z,102759.93
2019-02-22T06:49:32.092Z,102764.25
2019-02-22T06:51:59.377Z,102776.81
2019-02-22T06:54:26.788Z,102789.34
2019-02-22T06:56:53.521Z,102799.84
2019-02-22T06:59:20.761Z,102806.75
2019-02-22T07:02:07.341Z,102807.17
2019-02-22T07:04:34.425Z,102820.98
2019-02-22T07:07:01.811Z,102830.47
2019-02-22T07:09:28.957Z,102841.64
2019-02-22T07:12:15.555Z,102849.28
2019-02-22T07:15:01.847Z,102858.91
2019-02-22T07:17:28.680Z,102866.47
2019-02-22T07:19:55.466Z,102878.16
2019-02-22T07:22:22.238Z,102879.97
2019-02-22T07:24:48.864Z,102882.08
2019-02-22T07:27:16.219Z,102892.48
2019-02-22T07:30:03.830Z,102896.33
2019-02-22T07:32:31.121Z,102908.27
2019-02-22T07:34:59.347Z,102907.57
2019-02-22T07:37:26.690Z,102926.51
2019-02-22T07:39:54.168Z,102926.03
2019-02-22T07:42:21.262Z,102939.53
2019-02-22T07:47:41.720Z,102947.89
2019-02-22T07:50:09.697Z,102959.01
2019-02-22T07:52:36.863Z,102968.23
2019-02-22T07:55:03.698Z,102972.82
2019-02-22T07:57:30.382Z,102975.34
2019-02-22T07:59:57.347Z,102991.22
2019-02-22T08:02:24.074Z,102996.80
2019-02-22T08:04:50.761Z,103009.34
2019-02-22T08:07:17.817Z,103008.31
2019-02-22T08:09:44.690Z,103016.70
2019-02-22T08:12:11.365Z,103029.14
2019-02-22T08:14:38.239Z,103047.41
2019-02-22T08:17:05.183Z,103047.42
2019-02-22T08:19:32.554Z,103060.87
2019-02-22T08:22:00.252Z,103060.91
2019-02-22T08:24:28.037Z,103065.64
2019-02-22T08:27:14.454Z,103074.44
2019-02-22T08:29:42.027Z,103074.84
2019-02-22T08:32:09.542Z,103081.76
2019-02-22T08:34:36.882Z,103087.56
2019-02-22T08:37:03.748Z,103086.12
2019-02-22T08:39:30.604Z,103099.34
2019-02-22T08:41:57.384Z,103106.59
2019-02-22T08:44:24.724Z,103112.88
2019-02-22T08:46:51.729Z,103120.31
2019-02-22T08:49:18.840Z,103118.52
2019-02-22T08:51:45.467Z,103128.38
2019-02-22T08:54:12.289Z,103127.23
2019-02-22T08:56:38.958Z,103133.55
2019-02-22T08:59:05.701Z,103140.32
2019-02-22T09:01:35.491Z,103153.81
2019-02-22T09:04:01.366Z,103168.99
2019-02-22T09:06:28.336Z,103168.92
2019-02-22T09:08:54.957Z,103179.75
2019-02-22T09:11:21.790Z,103182.28
2019-02-22T09:13:48.900Z,103188.80
2019-02-22T09:16:15.616Z,103195.72
2019-02-22T09:21:15.381Z,103205.23
2019-02-22T09:23:42.369Z,103214.13
2019-02-22T09:26:09.400Z,103224.05
2019-02-22T09:28:36.011Z,103225.02
2019-02-22T09:31:02.877Z,103227.84
2019-02-22T09:33:29.576Z,103229.80
2019-02-22T09:35:56.224Z,103230.77
2019-02-22T09:38:22.949Z,103243.87
2019-02-22T09:40:49.731Z,103239.16
2019-02-22T09:43:16.530Z,103240.98
2019-02-22T09:45:43.887Z,103238.78
2019-02-22T09:48:10.754Z,103236.34
2019-02-22T09:50:37.476Z,103246.59
2019-02-22T09:53:04.297Z,103250.69
2019-02-22T09:55:31.193Z,103249.38
2019-02-22T09:57:58.271Z,103250.53
2019-02-22T10:00:24.997Z,103262.53
2019-02-22T10:02:51.758Z,103268.77
2019-02-22T10:05:18.477Z,103271.09
2019-02-22T10:07:45.151Z,103274.02
2019-02-22T10:10:12.376Z,103264.53
2019-02-22T10:12:39.126Z,103268.53
2019-02-22T10:15:05.990Z,103273.59
2019-02-22T10:17:32.797Z,103280.91
2019-02-22T10:20:01.520Z,103277.27
2019-02-22T10:22:28.151Z,103278.29
2019-02-22T10:24:54.940Z,103279.47
2019-02-22T10:27:21.660Z,103286.91
2019-02-22T10:29:48.390Z,103290.66
2019-02-22T10:32:15.950Z,103293.92
2019-02-22T10:34:43.756Z,103295.73
2019-02-22T10:37:10.806Z,103300.25
2019-02-22T10:39:37.489Z,103302.31
2019-02-22T10:42:04.209Z,103302.42
2019-02-22T10:44:30.950Z,103300.11
2019-02-22T10:46:58.252Z,103310.34
2019-02-22T10:49:25.045Z,103298.70
2019-02-22T10:51:51.996Z,103301.75
2019-02-22T10:54:19.039Z,103304.23
2019-02-22T10:56:46.256Z,103313.85
2019-02-22T10:59:13.013Z,103309.50
2019-02-22T11:01:39.952Z,103310.76
2019-02-22T11:04:19.285Z,103310.28
2019-02-22T11:06:46.634Z,103318.84
2019-02-22T11:09:14.733Z,103317.13
2019-02-22T11:11:41.857Z,103321.60
2019-02-22T11:14:08.814Z,103316.25
2019-02-22T11:16:35.970Z,103325.34
2019-02-22T11:19:02.698Z,103323.32
2019-02-22T11:21:29.659Z,103320.35
2019-02-22T11:23:56.288Z,103323.55
2019-02-22T11:26:23.086Z,103336.48
2019-02-22T11:28:49.883Z,103330.88
2019-02-22T11:31:17.432Z,103323.57
2019-02-22T11:33:45.878Z,103323.66
2019-02-22T11:36:12.654Z,103323.56
2019-02-22T11:38:39.378Z,103334.75
2019-02-22T11:41:06.006Z,103338.06
2019-02-22T11:43:32.775Z,103343.92
2019-02-22T11:45:59.504Z,103349.08
2019-02-22T11:48:26.233Z,103354.62
2019-02-22T11:50:53.149Z,103363.79
2019-02-22T11:53:20.209Z,103359.14
2019-02-22T11:55:47.156Z,103368.66
2019-02-22T11:58:14.205Z,103367.21
2019-02-22T12:00:40.950Z,103368.38
2019-02-22T12:03:21.265Z,103372.60
2019-02-22T12:05:49.176Z,103369.92
2019-02-22T12:08:16.199Z,103378.00
2019-02-22T12:10:43.333Z,103379.83
2019-02-22T12:13:10.128Z,103390.05
2019-02-22T12:15:37.556Z,103393.19
2019-02-22T12:18:04.439Z,103386.92
2019-02-22T12:20:31.192Z,103388.18
2019-02-22T12:22:57.931Z,103396.47
2019-02-22T12:25:24.911Z,103400.30
2019-02-22T12:27:52.093Z,103410.41
2019-02-22T12:30:18.818Z,103404.76
2019-02-22T12:32:45.644Z,103409.78
2019-02-22T12:35:12.519Z,103415.34
2019-02-22T12:37:39.914Z,103410.17
2019-02-22T12:40:07.749Z,103414.57
2019-02-22T12:42:34.530Z,103422.81
2019-02-22T12:45:20.762Z,103430.92
2019-02-22T12:48:07.768Z,103432.53
2019-02-22T12:50:34.916Z,103427.14
2019-02-22T12:53:02.060Z,103438.22
2019-02-22T12:55:29.206Z,103435.16
2019-02-22T12:57:56.527Z,103429.66
2019-02-22T13:00:23.639Z,103430.86
2019-02-22T13:03:01.600Z,103433.31
2019-02-22T13:05:19.973Z,103439.83
2019-02-22T13:07:46.918Z,103441.56
2019-02-22T13:10:13.686Z,103442.06
2019-02-22T13:12:40.403Z,103436.48
2019-02-22T13:15:13.975Z,103438.99
2019-02-22T13:17:37.875Z,103441.41
2019-02-22T13:20:05.131Z,103444.60
2019-02-22T13:22:31.990Z,103440.62
2019-02-22T13:24:58.768Z,103445.02
2019-02-22T13:27:25.975Z,103448.62
2019-02-22T13:29:52.698Z,103449.52
2019-02-22T13:32:19.377Z,103455.00
2019-02-22T13:34:46.176Z,103458.58
2019-02-22T13:37:13.103Z,103459.30
2019-02-22T13:39:40.218Z,103456.56
2019-02-22T13:42:07.294Z,103455.75
2019-02-22T13:44:34.429Z,103463.55
2019-02-22T13:47:01.142Z,103471.78
2019-02-22T13:49:27.870Z,103473.13
2019-02-22T13:51:54.679Z,103478.15
2019-02-22T13:54:21.358Z,103472.27
2019-02-22T13:56:48.168Z,103481.13
2019-02-22T13:59:14.793Z,103477.81
2019-02-22T14:01:41.492Z,103482.92
2019-02-22T14:04:08.103Z,103479.75
2019-02-22T14:06:34.829Z,103480.78
2019-02-22T14:09:14.770Z,103489.29
2019-02-22T14:11:41.792Z,103490.38
2019-02-22T14:14:08.505Z,103493.39
2019-02-22T14:16:35.814Z,103492.45
2019-02-22T14:19:02.627Z,103499.16
2019-02-22T14:21:29.361Z,103496.84
2019-02-22T14:23:56.407Z,103497.09
2019-02-22T14:26:23.015Z,103501.58
2019-02-22T14:28:50.009Z,103500.31
2019-02-22T14:31:16.930Z,103507.31
2019-02-22T14:34:03.452Z,103502.62
2019-02-22T14:36:30.242Z,103511.69
2019-02-22T14:38:57.311Z,103517.87
2019-02-22T14:41:23.979Z,103520.80
2019-02-22T14:43:50.870Z,103519.51
2019-02-22T14:46:25.637Z,103519.89
2019-02-22T14:48:46.125Z,103520.05
2019-02-22T14:51:15.121Z,103521.35
2019-02-22T14:53:41.762Z,103518.10
2019-02-22T14:56:08.544Z,103517.91
2019-02-22T14:58:35.525Z,103527.34
2019-02-22T15:01:02.624Z,103535.16
2019-02-22T15:03:29.453Z,103530.82
2019-02-22T15:05:57.132Z,103534.87
2019-02-22T15:08:24.121Z,103540.56
2019-02-22T15:10:51.603Z,103543.23
2019-02-22T15:13:18.676Z,103550.25
2019-02-22T15:16:05.219Z,103553.42
2019-02-22T15:18:32.733Z,103560.39
2019-02-22T15:20:59.952Z,103551.52
2019-02-22T15:23:26.666Z,103560.92
2019-02-22T15:25:53.328Z,103567.33
2019-02-22T15:28:20.629Z,103564.89
2019-02-22T15:30:48.031Z,103570.30
2019-02-22T15:33:15.021Z,103575.74
2019-02-22T15:35:41.930Z,103577.64
2019-02-22T15:38:10.123Z,103585.37
2019-02-22T15:40:39.390Z,103584.17
2019-02-22T15:43:06.276Z,103597.19
2019-02-22T15:45:33.138Z,103596.28
2019-02-22T15:48:00.401Z,103593.45
2019-02-22T15:50:27.403Z,103595.40
2019-02-22T15:52:54.289Z,103598.64
2019-02-22T15:55:21.183Z,103602.40
2019-02-22T15:57:47.807Z,103604.38
2019-02-22T16:00:18.095Z,103608.36
2019-02-22T16:02:44.892Z,103605.68
2019-02-22T16:05:16.010Z,103611.83
2019-02-22T16:07:44.948Z,103620.89
2019-02-22T16:10:12.250Z,103615.42
2019-02-22T16:12:51.745Z,103618.34
2019-02-22T16:15:18.987Z,103630.13
2019-02-22T16:18:07.756Z,103632.94
2019-02-22T16:20:34.537Z,103633.23
2019-02-22T16:23:01.472Z,103638.44
2019-02-22T16:25:29.700Z,103641.21
2019-02-22T16:27:57.761Z,103641.66
2019-02-22T16:33:14.519Z,103654.70
2019-02-22T16:35:41.733Z,103657.43
2019-02-22T16:38:08.364Z,103667.95
2019-02-22T16:40:35.406Z,103668.53
2019-02-22T16:43:02.069Z,103673.36
2019-02-22T16:45:28.891Z,103678.17
2019-02-22T16:47:55.888Z,103684.62
2019-02-22T16:50:22.949Z,103678.59
2019-02-22T16:52:50.360Z,103692.86
2019-02-22T16:55:17.145Z,103694.72
2019-02-22T16:57:44.025Z,103698.75
2019-02-22T17:00:11.935Z,103696.77
2019-02-22T17:02:39.110Z,103704.27
2019-02-22T17:05:06.844Z,103706.27
2019-02-22T17:07:34.382Z,103712.19
2019-02-22T17:10:01.434Z,103709.36
2019-02-22T17:12:48.678Z,103706.62
2019-02-22T17:15:15.699Z,103710.09
2019-02-22T17:17:42.709Z,103713.69
2019-02-22T17:20:09.685Z,103716.44
2019-02-22T17:22:36.947Z,103726.83
2019-02-22T17:25:05.350Z,103726.23
2019-02-22T17:27:32.127Z,103726.62
2019-02-22T17:29:59.027Z,103731.82
2019-02-22T17:32:26.340Z,103733.31
2019-02-22T17:34:52.971Z,103740.17
2019-02-22T17:37:20.042Z,103739.59
2019-02-22T17:39:46.887Z,103745.81
2019-02-22T17:42:13.627Z,103751.69
2019-02-22T17:44:40.808Z,103762.18
2019-02-22T17:47:07.557Z,103768.86
2019-02-22T17:49:34.663Z,103766.25
2019-02-22T17:52:01.708Z,103776.13
2019-02-22T17:54:30.312Z,103779.61
2019-02-22T17:56:57.143Z,103787.06
2019-02-22T17:59:24.081Z,103786.05
2019-02-22T18:01:50.701Z,103793.70
2019-02-22T18:04:17.351Z,103796.47
2019-02-22T18:06:45.277Z,103788.41
2019-02-22T18:09:13.118Z,103785.86
2019-02-22T18:11:39.767Z,103778.79
2019-02-22T18:14:07.805Z,103777.77
2019-02-22T18:16:36.264Z,103782.33
2019-02-22T18:19:03.750Z,103772.14
2019-02-22T18:21:30.804Z,103782.27
2019-02-22T18:24:17.185Z,103796.59
2019-02-22T18:26:44.085Z,103796.59
2019-02-22T18:29:10.742Z,103799.07
2019-02-22T18:31:37.631Z,103802.73
2019-02-22T18:34:04.683Z,103806.50
2019-02-22T18:36:32.835Z,103787.90
2019-02-22T18:38:59.462Z,103796.78
2019-02-22T18:41:26.240Z,103787.82
2019-02-22T18:43:52.875Z,103786.09
2019-02-22T18:46:19.613Z,103793.22
2019-02-22T18:48:46.454Z,103797.06
2019-02-22T18:51:13.330Z,103797.06
2019-02-22T18:53:40.138Z,103796.88
2019-02-22T18:56:06.826Z,103803.34
2019-02-22T18:58:33.622Z,103804.02
2019-02-22T19:01:00.362Z,103810.28
2019-02-22T19:03:27.518Z,103813.37
2019-02-22T19:05:54.294Z,103813.34
2019-02-22T19:08:31.773Z,103817.03
2019-02-22T19:13:23.271Z,103828.44
2019-02-22T19:16:10.134Z,103837.41
2019-02-22T19:18:56.505Z,103827.38
2019-02-22T19:21:43.289Z,103829.22
2019-02-22T19:24:30.051Z,103835.77
2019-02-22T19:26:57.567Z,103835.77
2019-02-22T19:29:25.072Z,103843.16
2019-02-22T19:32:11.715Z,103854.68
2019-02-22T19:34:38.456Z,103859.97
2019-02-22T19:37:24.770Z,103851.11
2019-02-22T19:39:51.498Z,103864.03
2019-02-22T19:42:18.586Z,103855.92
2019-02-22T19:44:45.388Z,103873.78
2019-02-22T19:47:12.269Z,103870.75
2019-02-22T19:49:39.008Z,103867.27
2019-02-22T19:52:05.789Z,103868.44
2019-02-22T19:54:32.713Z,103862.73
2019-02-22T19:56:59.830Z,103864.91
2019-02-22T19:59:26.509Z,103869.12
2019-02-22T20:01:53.380Z,103867.95
2019-02-22T20:04:20.089Z,103856.47
2019-02-22T20:06:47.262Z,103856.13
2019-02-22T20:09:13.902Z,103858.10
2019-02-22T20:11:40.633Z,103858.08
2019-02-22T20:14:08.100Z,103858.91
2019-02-22T20:16:34.841Z,103861.34
2019-02-22T20:19:01.493Z,103861.13
2019-02-22T20:21:28.528Z,103870.05
2019-02-22T20:23:55.177Z,103872.97
2019-02-22T20:26:21.815Z,103871.44
2019-02-22T20:28:48.611Z,103874.28
2019-02-22T20:31:20.342Z,103874.14
2019-02-22T20:33:44.308Z,103882.09
2019-02-22T20:36:11.405Z,103882.97
2019-02-22T20:38:38.175Z,103884.88
2019-02-22T20:41:05.177Z,103891.73
2019-02-22T20:43:32.007Z,103902.56
2019-02-22T20:45:59.006Z,103902.88
2019-02-22T20:48:26.097Z,103908.44
2019-02-22T20:50:53.061Z,103910.42
2019-02-22T20:53:19.901Z,103905.38
2019-02-22T20:55:46.919Z,103905.44
2019-02-22T20:58:13.717Z,103900.43
2019-02-22T21:03:22.738Z,103892.44
2019-02-22T21:05:49.551Z,103897.28
2019-02-22T21:08:16.200Z,103899.86
2019-02-22T21:10:42.993Z,103899.27
2019-02-22T21:13:10.056Z,103898.30
2019-02-22T21:15:36.697Z,103889.98
2019-02-22T21:18:03.577Z,103896.48
2019-02-22T21:20:30.219Z,103901.73
2019-02-22T21:22:57.357Z,103899.27
2019-02-22T21:25:24.532Z,103903.55
2019-02-22T21:27:51.670Z,103903.55
2019-02-22T21:30:18.467Z,103918.64
2019-02-22T21:32:45.690Z,103922.52
2019-02-22T21:35:12.334Z,103925.73
2019-02-22T21:37:39.162Z,103922.56
2019-02-22T21:40:07.106Z,103924.36
2019-02-22T21:42:33.952Z,103925.45
2019-02-22T21:45:00.602Z,103931.39
2019-02-22T21:47:27.732Z,103931.39
2019-02-22T21:49:54.381Z,103940.89
2019-02-22T21:52:22.076Z,103937.48
2019-02-22T21:54:48.797Z,103946.45
2019-02-22T21:57:15.535Z,103956.66
2019-02-22T21:59:42.281Z,103954.64
2019-02-22T22:02:09.088Z,103970.45
2019-02-22T22:04:36.122Z,103970.45
2019-02-22T22:07:15.936Z,103976.33
2019-02-22T22:09:43.007Z,103981.09
2019-02-22T22:12:09.929Z,103983.60
2019-02-22T22:14:37.058Z,103979.48
2019-02-22T22:17:03.932Z,103990.39
2019-02-22T22:19:30.672Z,103982.59
2019-02-22T22:21:57.660Z,103989.56
2019-02-22T22:24:24.768Z,103994.95
2019-02-22T22:26:51.697Z,103998.62
2019-02-22T22:29:18.752Z,104001.06
2019-02-22T22:32:05.015Z,104014.01
2019-02-22T22:34:31.816Z,104014.01
2019-02-22T22:37:18.068Z,104014.23
2019-02-22T22:40:04.543Z,104021.48
2019-02-22T22:42:31.577Z,104021.48
2019-02-22T22:45:18.800Z,104030.97
2019-02-22T22:47:45.526Z,104030.97
2019-02-22T22:50:31.858Z,104025.50
2019-02-22T22:52:58.611Z,104025.50
2019-02-22T22:55:25.636Z,104022.09
2019-02-22T22:57:53.290Z,104026.69
2019-02-22T23:01:19.191Z,104027.23
2019-02-22T23:03:46.331Z,104027.46
2019-02-22T23:06:15.057Z,104025.06
2019-02-22T23:08:42.542Z,104020.34
2019-02-22T23:11:09.706Z,104019.33
2019-02-22T23:13:37.165Z,104012.37
2019-02-22T23:16:45.463Z,104012.37
2019-02-22T23:19:12.919Z,104014.03
2019-02-22T23:21:40.297Z,104005.91
2019-02-22T23:24:07.822Z,104015.58
2019-02-22T23:26:34.930Z,104010.56
2019-02-22T23:29:02.056Z,104015.94
2019-02-22T23:31:29.565Z,104019.01
2019-02-22T23:33:57.196Z,104019.01
2019-02-22T23:36:43.847Z,104033.94
2019-02-22T23:39:11.285Z,104033.94
2019-02-22T23:41:38.396Z,104044.67
2019-02-22T23:44:05.566Z,104040.69
2019-02-22T23:46:33.265Z,104054.88
2019-02-22T23:49:00.636Z,104074.03
2019-02-22T23:51:27.842Z,104068.96
2019-02-22T23:53:55.366Z,104070.93
2019-02-22T23:56:41.697Z,104070.93
2019-02-22T23:59:08.664Z,104067.16
